sensor_id;sensor_type;location;lat;lon;timestamp;temperature;humidity
59025;DHT22;44806;48.008;13.666;2022-11-11T00:01:46;6.40;99.90
59025;DHT22;44806;48.008;13.666;2022-11-11T00:04:14;6.40;99.90
59025;DHT22;44806;48.008;13.666;2022-11-11T00:06:43;6.30;99.90
59025;DHT22;44806;48.008;13.666;2022-11-11T00:09:14;6.20;99.90
59025;DHT22;44806;48.008;13.666;2022-11-11T00:11:41;6.20;99.90
59025;DHT22;44806;48.008;13.666;2022-11-11T00:14:09;6.20;99.90
59025;DHT22;44806;48.008;13.666;2022-11-11T00:16:36;6.20;99.90
59025;DHT22;44806;48.008;13.666;2022-11-11T00:19:21;6.20;99.90
59025;DHT22;44806;48.008;13.666;2022-11-11T00:22:18;6.20;99.90
59025;DHT22;44806;48.008;13.666;2022-11-11T00:25:06;6.10;99.90
59025;DHT22;44806;48.008;13.666;2022-11-11T00:27:35;6.20;99.90
59025;DHT22;44806;48.008;13.666;2022-11-11T00:30:06;6.10;99.90
59025;DHT22;44806;48.008;13.666;2022-11-11T00:32:34;6.10;99.90
59025;DHT22;44806;48.008;13.666;2022-11-11T00:35:01;6.00;99.90
59025;DHT22;44806;48.008;13.666;2022-11-11T00:37:46;6.00;99.90
59025;DHT22;44806;48.008;13.666;2022-11-11T00:40:18;6.00;99.90
59025;DHT22;44806;48.008;13.666;2022-11-11T00:42:45;6.10;99.90
59025;DHT22;44806;48.008;13.666;2022-11-11T00:45:13;5.90;99.90
59025;DHT22;44806;48.008;13.666;2022-11-11T00:47:41;5.90;99.90
59025;DHT22;44806;48.008;13.666;2022-11-11T00:50:28;5.90;99.90
59025;DHT22;44806;48.008;13.666;2022-11-11T00:53:14;5.90;99.90
59025;DHT22;44806;48.008;13.666;2022-11-11T00:55:43;5.80;99.90
59025;DHT22;44806;48.008;13.666;2022-11-11T00:58:11;5.80;99.90
59025;DHT22;44806;48.008;13.666;2022-11-11T01:00:38;5.80;99.90
59025;DHT22;44806;48.008;13.666;2022-11-11T01:03:05;5.60;99.90
59025;DHT22;44806;48.008;13.666;2022-11-11T01:05:36;5.60;99.90
59025;DHT22;44806;48.008;13.666;2022-11-11T01:08:07;5.60;99.90
59025;DHT22;44806;48.008;13.666;2022-11-11T01:10:35;5.60;99.90
59025;DHT22;44806;48.008;13.666;2022-11-11T01:13:18;5.60;99.90
59025;DHT22;44806;48.008;13.666;2022-11-11T01:15:47;5.70;99.90
59025;DHT22;44806;48.008;13.666;2022-11-11T01:18:17;5.70;99.90
59025;DHT22;44806;48.008;13.666;2022-11-11T01:20:46;5.70;99.90
59025;DHT22;44806;48.008;13.666;2022-11-11T01:23:14;5.70;99.90
59025;DHT22;44806;48.008;13.666;2022-11-11T01:25:41;5.70;99.90
59025;DHT22;44806;48.008;13.666;2022-11-11T01:28:10;5.70;99.90
59025;DHT22;44806;48.008;13.666;2022-11-11T01:30:38;5.70;99.90
59025;DHT22;44806;48.008;13.666;2022-11-11T01:33:08;5.60;99.90
59025;DHT22;44806;48.008;13.666;2022-11-11T01:35:38;5.50;99.90
59025;DHT22;44806;48.008;13.666;2022-11-11T01:38:08;5.50;99.90
59025;DHT22;44806;48.008;13.666;2022-11-11T01:40:43;5.40;99.90
59025;DHT22;44806;48.008;13.666;2022-11-11T01:43:21;5.40;99.90
59025;DHT22;44806;48.008;13.666;2022-11-11T01:45:54;5.30;99.90
59025;DHT22;44806;48.008;13.666;2022-11-11T01:48:32;5.30;99.90
59025;DHT22;44806;48.008;13.666;2022-11-11T01:51:29;5.30;99.90
59025;DHT22;44806;48.008;13.666;2022-11-11T01:54:03;5.40;99.90
59025;DHT22;44806;48.008;13.666;2022-11-11T01:56:32;5.40;99.90
59025;DHT22;44806;48.008;13.666;2022-11-11T01:59:04;5.40;99.90
59025;DHT22;44806;48.008;13.666;2022-11-11T02:01:34;5.40;99.90
59025;DHT22;44806;48.008;13.666;2022-11-11T02:04:04;5.40;99.90
59025;DHT22;44806;48.008;13.666;2022-11-11T02:06:50;5.40;99.90
59025;DHT22;44806;48.008;13.666;2022-11-11T02:09:20;5.40;99.90
59025;DHT22;44806;48.008;13.666;2022-11-11T02:11:49;5.40;99.90
59025;DHT22;44806;48.008;13.666;2022-11-11T02:14:41;5.50;99.90
59025;DHT22;44806;48.008;13.666;2022-11-11T02:17:13;5.40;99.90
59025;DHT22;44806;48.008;13.666;2022-11-11T02:19:45;5.50;99.90
59025;DHT22;44806;48.008;13.666;2022-11-11T02:22:20;5.40;99.90
59025;DHT22;44806;48.008;13.666;2022-11-11T02:24:54;5.30;99.90
59025;DHT22;44806;48.008;13.666;2022-11-11T02:27:24;5.20;99.90
59025;DHT22;44806;48.008;13.666;2022-11-11T02:29:54;5.20;99.90
59025;DHT22;44806;48.008;13.666;2022-11-11T02:32:22;5.10;99.90
59025;DHT22;44806;48.008;13.666;2022-11-11T02:34:49;5.20;99.90
59025;DHT22;44806;48.008;13.666;2022-11-11T02:37:22;5.10;99.90
59025;DHT22;44806;48.008;13.666;2022-11-11T02:39:55;5.10;99.90
59025;DHT22;44806;48.008;13.666;2022-11-11T02:42:24;5.20;99.90
59025;DHT22;44806;48.008;13.666;2022-11-11T02:44:50;5.30;99.90
59025;DHT22;44806;48.008;13.666;2022-11-11T02:47:24;5.30;99.90
59025;DHT22;44806;48.008;13.666;2022-11-11T02:49:55;5.20;99.90
59025;DHT22;44806;48.008;13.666;2022-11-11T02:52:23;5.20;99.90
59025;DHT22;44806;48.008;13.666;2022-11-11T02:54:52;5.30;99.90
59025;DHT22;44806;48.008;13.666;2022-11-11T02:57:23;5.30;99.90
59025;DHT22;44806;48.008;13.666;2022-11-11T02:59:51;5.30;99.90
59025;DHT22;44806;48.008;13.666;2022-11-11T03:02:20;5.30;99.90
59025;DHT22;44806;48.008;13.666;2022-11-11T03:04:52;5.20;99.90
59025;DHT22;44806;48.008;13.666;2022-11-11T03:07:23;5.20;99.90
59025;DHT22;44806;48.008;13.666;2022-11-11T03:09:53;5.20;99.90
59025;DHT22;44806;48.008;13.666;2022-11-11T03:12:24;5.10;99.90
59025;DHT22;44806;48.008;13.666;2022-11-11T03:14:51;5.00;99.90
59025;DHT22;44806;48.008;13.666;2022-11-11T03:17:20;5.00;99.90
59025;DHT22;44806;48.008;13.666;2022-11-11T03:20:05;4.90;99.90
59025;DHT22;44806;48.008;13.666;2022-11-11T03:23:00;5.00;99.90
59025;DHT22;44806;48.008;13.666;2022-11-11T03:25:30;5.00;99.90
59025;DHT22;44806;48.008;13.666;2022-11-11T03:28:03;5.00;99.90
59025;DHT22;44806;48.008;13.666;2022-11-11T03:30:31;5.00;99.90
59025;DHT22;44806;48.008;13.666;2022-11-11T03:32:59;5.00;99.90
59025;DHT22;44806;48.008;13.666;2022-11-11T03:35:27;5.00;99.90
59025;DHT22;44806;48.008;13.666;2022-11-11T03:37:55;5.00;99.90
59025;DHT22;44806;48.008;13.666;2022-11-11T03:40:41;5.00;99.90
59025;DHT22;44806;48.008;13.666;2022-11-11T03:43:08;4.90;99.90
59025;DHT22;44806;48.008;13.666;2022-11-11T03:45:36;5.00;99.90
59025;DHT22;44806;48.008;13.666;2022-11-11T03:48:04;4.90;99.90
59025;DHT22;44806;48.008;13.666;2022-11-11T03:50:32;4.90;99.90
59025;DHT22;44806;48.008;13.666;2022-11-11T03:53:00;4.90;99.90
59025;DHT22;44806;48.008;13.666;2022-11-11T03:55:28;4.90;99.90
59025;DHT22;44806;48.008;13.666;2022-11-11T03:58:00;4.80;99.90
59025;DHT22;44806;48.008;13.666;2022-11-11T04:00:28;4.90;99.90
59025;DHT22;44806;48.008;13.666;2022-11-11T04:03:03;4.90;99.90
59025;DHT22;44806;48.008;13.666;2022-11-11T04:05:48;4.90;99.90
59025;DHT22;44806;48.008;13.666;2022-11-11T04:08:45;4.80;99.90
59025;DHT22;44806;48.008;13.666;2022-11-11T04:11:34;4.90;99.90
59025;DHT22;44806;48.008;13.666;2022-11-11T04:14:05;4.80;99.90
59025;DHT22;44806;48.008;13.666;2022-11-11T04:16:53;4.80;99.90
59025;DHT22;44806;48.008;13.666;2022-11-11T04:19:20;4.90;99.90
59025;DHT22;44806;48.008;13.666;2022-11-11T04:22:05;4.90;99.90
59025;DHT22;44806;48.008;13.666;2022-11-11T04:24:33;4.80;99.90
59025;DHT22;44806;48.008;13.666;2022-11-11T04:27:19;4.80;99.90
59025;DHT22;44806;48.008;13.666;2022-11-11T04:29:47;4.80;99.90
59025;DHT22;44806;48.008;13.666;2022-11-11T04:32:16;4.80;99.90
59025;DHT22;44806;48.008;13.666;2022-11-11T04:35:05;4.80;99.90
59025;DHT22;44806;48.008;13.666;2022-11-11T04:37:34;4.80;99.90
59025;DHT22;44806;48.008;13.666;2022-11-11T04:40:02;4.90;99.90
59025;DHT22;44806;48.008;13.666;2022-11-11T04:42:47;4.90;99.90
59025;DHT22;44806;48.008;13.666;2022-11-11T04:45:16;4.80;99.90
59025;DHT22;44806;48.008;13.666;2022-11-11T04:48:02;4.70;99.90
59025;DHT22;44806;48.008;13.666;2022-11-11T04:50:34;4.70;99.90
59025;DHT22;44806;48.008;13.666;2022-11-11T04:53:04;4.80;99.90
59025;DHT22;44806;48.008;13.666;2022-11-11T04:55:32;4.80;99.90
59025;DHT22;44806;48.008;13.666;2022-11-11T04:58:19;4.80;99.90
59025;DHT22;44806;48.008;13.666;2022-11-11T05:00:50;4.80;99.90
59025;DHT22;44806;48.008;13.666;2022-11-11T05:03:18;4.80;99.90
59025;DHT22;44806;48.008;13.666;2022-11-11T05:05:49;4.80;99.90
59025;DHT22;44806;48.008;13.666;2022-11-11T05:08:37;4.70;99.90
59025;DHT22;44806;48.008;13.666;2022-11-11T05:11:25;4.80;99.90
59025;DHT22;44806;48.008;13.666;2022-11-11T05:13:58;4.80;99.90
59025;DHT22;44806;48.008;13.666;2022-11-11T05:16:45;4.80;99.90
59025;DHT22;44806;48.008;13.666;2022-11-11T05:19:30;4.80;99.90
59025;DHT22;44806;48.008;13.666;2022-11-11T05:22:19;4.80;99.90
59025;DHT22;44806;48.008;13.666;2022-11-11T05:24:48;4.80;99.90
59025;DHT22;44806;48.008;13.666;2022-11-11T05:27:33;4.80;99.90
59025;DHT22;44806;48.008;13.666;2022-11-11T05:30:03;4.70;99.90
59025;DHT22;44806;48.008;13.666;2022-11-11T05:32:32;4.70;99.90
59025;DHT22;44806;48.008;13.666;2022-11-11T05:35:00;4.70;99.90
59025;DHT22;44806;48.008;13.666;2022-11-11T05:37:27;4.70;99.90
59025;DHT22;44806;48.008;13.666;2022-11-11T05:39:55;4.60;99.90
59025;DHT22;44806;48.008;13.666;2022-11-11T05:42:23;4.70;99.90
59025;DHT22;44806;48.008;13.666;2022-11-11T05:44:50;4.70;99.90
59025;DHT22;44806;48.008;13.666;2022-11-11T05:47:18;4.70;99.90
59025;DHT22;44806;48.008;13.666;2022-11-11T05:49:47;4.70;99.90
59025;DHT22;44806;48.008;13.666;2022-11-11T05:52:18;4.70;99.90
59025;DHT22;44806;48.008;13.666;2022-11-11T05:54:45;4.70;99.90
59025;DHT22;44806;48.008;13.666;2022-11-11T05:57:16;4.70;99.90
59025;DHT22;44806;48.008;13.666;2022-11-11T05:59:44;4.70;99.90
59025;DHT22;44806;48.008;13.666;2022-11-11T06:02:13;4.70;99.90
59025;DHT22;44806;48.008;13.666;2022-11-11T06:04:41;4.80;99.90
59025;DHT22;44806;48.008;13.666;2022-11-11T06:07:13;4.80;99.90
59025;DHT22;44806;48.008;13.666;2022-11-11T06:09:40;4.80;99.90
59025;DHT22;44806;48.008;13.666;2022-11-11T06:12:08;4.80;99.90
59025;DHT22;44806;48.008;13.666;2022-11-11T06:14:39;4.70;99.90
59025;DHT22;44806;48.008;13.666;2022-11-11T06:17:07;4.70;99.90
59025;DHT22;44806;48.008;13.666;2022-11-11T06:19:34;4.70;99.90
59025;DHT22;44806;48.008;13.666;2022-11-11T06:22:04;4.70;99.90
59025;DHT22;44806;48.008;13.666;2022-11-11T06:24:33;4.70;99.90
59025;DHT22;44806;48.008;13.666;2022-11-11T06:27:00;4.70;99.90
59025;DHT22;44806;48.008;13.666;2022-11-11T06:29:28;4.70;99.90
59025;DHT22;44806;48.008;13.666;2022-11-11T06:31:55;4.60;99.90
59025;DHT22;44806;48.008;13.666;2022-11-11T06:34:23;4.60;99.90
59025;DHT22;44806;48.008;13.666;2022-11-11T06:36:51;4.60;99.90
59025;DHT22;44806;48.008;13.666;2022-11-11T06:39:18;4.60;99.90
59025;DHT22;44806;48.008;13.666;2022-11-11T06:41:47;4.70;99.90
59025;DHT22;44806;48.008;13.666;2022-11-11T06:44:15;4.70;99.90
59025;DHT22;44806;48.008;13.666;2022-11-11T06:46:43;4.70;99.90
59025;DHT22;44806;48.008;13.666;2022-11-11T06:49:10;4.70;99.90
59025;DHT22;44806;48.008;13.666;2022-11-11T06:51:38;4.70;99.90
59025;DHT22;44806;48.008;13.666;2022-11-11T06:54:06;4.70;99.90
59025;DHT22;44806;48.008;13.666;2022-11-11T06:56:33;4.70;99.90
59025;DHT22;44806;48.008;13.666;2022-11-11T06:59:02;4.70;99.90
59025;DHT22;44806;48.008;13.666;2022-11-11T07:01:29;4.80;99.90
59025;DHT22;44806;48.008;13.666;2022-11-11T07:03:57;4.80;99.90
59025;DHT22;44806;48.008;13.666;2022-11-11T07:06:25;4.80;99.90
59025;DHT22;44806;48.008;13.666;2022-11-11T07:08:52;4.90;99.90
59025;DHT22;44806;48.008;13.666;2022-11-11T07:11:20;4.90;99.90
59025;DHT22;44806;48.008;13.666;2022-11-11T07:13:50;4.90;99.90
59025;DHT22;44806;48.008;13.666;2022-11-11T07:16:19;5.00;99.90
59025;DHT22;44806;48.008;13.666;2022-11-11T07:18:47;4.90;99.90
59025;DHT22;44806;48.008;13.666;2022-11-11T07:21:14;4.90;99.90
59025;DHT22;44806;48.008;13.666;2022-11-11T07:23:42;4.90;99.90
59025;DHT22;44806;48.008;13.666;2022-11-11T07:26:10;5.00;99.90
59025;DHT22;44806;48.008;13.666;2022-11-11T07:28:38;5.00;99.90
59025;DHT22;44806;48.008;13.666;2022-11-11T07:31:05;5.10;99.90
59025;DHT22;44806;48.008;13.666;2022-11-11T07:33:35;5.20;99.90
59025;DHT22;44806;48.008;13.666;2022-11-11T07:36:05;5.20;99.90
59025;DHT22;44806;48.008;13.666;2022-11-11T07:38:35;5.20;99.90
59025;DHT22;44806;48.008;13.666;2022-11-11T07:41:04;5.20;99.90
59025;DHT22;44806;48.008;13.666;2022-11-11T07:43:32;5.20;99.90
59025;DHT22;44806;48.008;13.666;2022-11-11T07:45:59;5.30;99.90
59025;DHT22;44806;48.008;13.666;2022-11-11T07:48:27;5.30;99.90
59025;DHT22;44806;48.008;13.666;2022-11-11T07:50:56;5.40;99.90
59025;DHT22;44806;48.008;13.666;2022-11-11T07:53:28;5.40;99.90
59025;DHT22;44806;48.008;13.666;2022-11-11T07:55:55;5.50;99.90
59025;DHT22;44806;48.008;13.666;2022-11-11T07:58:23;5.50;99.90
59025;DHT22;44806;48.008;13.666;2022-11-11T08:00:50;5.50;99.90
59025;DHT22;44806;48.008;13.666;2022-11-11T08:03:18;5.50;99.90
59025;DHT22;44806;48.008;13.666;2022-11-11T08:05:46;5.60;99.90
59025;DHT22;44806;48.008;13.666;2022-11-11T08:08:18;5.60;99.90
59025;DHT22;44806;48.008;13.666;2022-11-11T08:10:53;5.60;99.90
59025;DHT22;44806;48.008;13.666;2022-11-11T08:13:23;5.60;99.90
59025;DHT22;44806;48.008;13.666;2022-11-11T08:16:09;5.60;99.90
59025;DHT22;44806;48.008;13.666;2022-11-11T08:18:37;5.60;99.90
59025;DHT22;44806;48.008;13.666;2022-11-11T08:21:05;5.70;99.90
59025;DHT22;44806;48.008;13.666;2022-11-11T08:23:35;5.70;99.90
59025;DHT22;44806;48.008;13.666;2022-11-11T08:26:04;5.80;99.90
59025;DHT22;44806;48.008;13.666;2022-11-11T08:28:33;5.80;99.90
59025;DHT22;44806;48.008;13.666;2022-11-11T08:31:01;5.80;99.90
59025;DHT22;44806;48.008;13.666;2022-11-11T08:33:29;6.00;99.90
59025;DHT22;44806;48.008;13.666;2022-11-11T08:36:02;6.10;99.90
59025;DHT22;44806;48.008;13.666;2022-11-11T08:38:33;6.10;99.90
59025;DHT22;44806;48.008;13.666;2022-11-11T08:41:03;6.20;99.90
59025;DHT22;44806;48.008;13.666;2022-11-11T08:43:31;6.20;99.90
59025;DHT22;44806;48.008;13.666;2022-11-11T08:46:02;6.40;99.90
59025;DHT22;44806;48.008;13.666;2022-11-11T08:48:30;6.40;99.90
59025;DHT22;44806;48.008;13.666;2022-11-11T08:51:00;6.50;99.90
59025;DHT22;44806;48.008;13.666;2022-11-11T08:53:28;6.50;99.90
59025;DHT22;44806;48.008;13.666;2022-11-11T08:56:02;6.50;99.90
59025;DHT22;44806;48.008;13.666;2022-11-11T08:58:29;6.60;99.90
59025;DHT22;44806;48.008;13.666;2022-11-11T09:01:00;6.60;99.90
59025;DHT22;44806;48.008;13.666;2022-11-11T09:03:31;6.70;99.90
59025;DHT22;44806;48.008;13.666;2022-11-11T09:05:59;6.70;99.90
59025;DHT22;44806;48.008;13.666;2022-11-11T09:08:27;6.80;99.90
59025;DHT22;44806;48.008;13.666;2022-11-11T09:10:57;6.80;99.90
59025;DHT22;44806;48.008;13.666;2022-11-11T09:13:26;6.90;99.90
59025;DHT22;44806;48.008;13.666;2022-11-11T09:15:54;6.90;99.90
59025;DHT22;44806;48.008;13.666;2022-11-11T09:18:22;7.00;99.90
59025;DHT22;44806;48.008;13.666;2022-11-11T09:20:53;7.00;99.90
59025;DHT22;44806;48.008;13.666;2022-11-11T09:23:24;7.10;99.90
59025;DHT22;44806;48.008;13.666;2022-11-11T09:25:51;7.20;99.90
59025;DHT22;44806;48.008;13.666;2022-11-11T09:28:21;7.20;99.90
59025;DHT22;44806;48.008;13.666;2022-11-11T09:30:50;7.30;99.90
59025;DHT22;44806;48.008;13.666;2022-11-11T09:33:18;7.40;99.90
59025;DHT22;44806;48.008;13.666;2022-11-11T09:35:46;7.50;99.90
59025;DHT22;44806;48.008;13.666;2022-11-11T09:38:13;7.60;99.90
59025;DHT22;44806;48.008;13.666;2022-11-11T09:40:50;7.60;99.90
59025;DHT22;44806;48.008;13.666;2022-11-11T09:43:28;7.70;99.90
59025;DHT22;44806;48.008;13.666;2022-11-11T09:46:32;7.80;99.90
59025;DHT22;44806;48.008;13.666;2022-11-11T09:49:30;7.90;99.90
59025;DHT22;44806;48.008;13.666;2022-11-11T09:52:03;8.00;99.90
59025;DHT22;44806;48.008;13.666;2022-11-11T09:54:38;8.00;99.90
59025;DHT22;44806;48.008;13.666;2022-11-11T09:57:14;8.00;99.90
59025;DHT22;44806;48.008;13.666;2022-11-11T09:59:48;8.10;99.90
59025;DHT22;44806;48.008;13.666;2022-11-11T10:02:29;8.10;99.90
59025;DHT22;44806;48.008;13.666;2022-11-11T10:05:08;8.10;99.90
59025;DHT22;44806;48.008;13.666;2022-11-11T10:07:47;8.10;99.90
59025;DHT22;44806;48.008;13.666;2022-11-11T10:10:22;8.20;99.90
59025;DHT22;44806;48.008;13.666;2022-11-11T10:12:54;8.30;99.90
59025;DHT22;44806;48.008;13.666;2022-11-11T10:15:25;8.30;99.90
59025;DHT22;44806;48.008;13.666;2022-11-11T10:18:16;8.30;99.90
59025;DHT22;44806;48.008;13.666;2022-11-11T10:20:51;8.30;99.90
59025;DHT22;44806;48.008;13.666;2022-11-11T10:23:24;8.30;99.90
59025;DHT22;44806;48.008;13.666;2022-11-11T10:25:54;8.30;99.90
59025;DHT22;44806;48.008;13.666;2022-11-11T10:28:25;8.40;99.90
59025;DHT22;44806;48.008;13.666;2022-11-11T10:30:55;8.50;99.90
59025;DHT22;44806;48.008;13.666;2022-11-11T10:33:27;8.60;99.90
59025;DHT22;44806;48.008;13.666;2022-11-11T10:35:59;8.60;99.90
59025;DHT22;44806;48.008;13.666;2022-11-11T10:38:37;8.60;99.90
59025;DHT22;44806;48.008;13.666;2022-11-11T10:41:15;8.70;99.90
59025;DHT22;44806;48.008;13.666;2022-11-11T10:43:45;8.70;99.90
59025;DHT22;44806;48.008;13.666;2022-11-11T10:46:17;8.70;99.90
59025;DHT22;44806;48.008;13.666;2022-11-11T10:48:52;8.70;99.90
59025;DHT22;44806;48.008;13.666;2022-11-11T10:51:21;8.70;99.90
59025;DHT22;44806;48.008;13.666;2022-11-11T10:53:56;8.80;99.90
59025;DHT22;44806;48.008;13.666;2022-11-11T10:56:31;8.80;99.90
59025;DHT22;44806;48.008;13.666;2022-11-11T10:59:08;8.90;99.90
59025;DHT22;44806;48.008;13.666;2022-11-11T11:01:42;8.90;99.90
59025;DHT22;44806;48.008;13.666;2022-11-11T11:07:05;9.00;99.90
59025;DHT22;44806;48.008;13.666;2022-11-11T11:09:39;9.10;99.90
59025;DHT22;44806;48.008;13.666;2022-11-11T11:12:13;9.10;99.90
59025;DHT22;44806;48.008;13.666;2022-11-11T11:14:47;9.10;99.90
59025;DHT22;44806;48.008;13.666;2022-11-11T11:17:22;9.10;99.90
59025;DHT22;44806;48.008;13.666;2022-11-11T11:20:07;9.20;99.90
59025;DHT22;44806;48.008;13.666;2022-11-11T11:22:47;9.10;99.90
59025;DHT22;44806;48.008;13.666;2022-11-11T11:25:16;9.10;99.90
59025;DHT22;44806;48.008;13.666;2022-11-11T11:27:45;9.10;99.90
59025;DHT22;44806;48.008;13.666;2022-11-11T11:30:15;9.10;99.90
59025;DHT22;44806;48.008;13.666;2022-11-11T11:32:56;9.10;99.90
59025;DHT22;44806;48.008;13.666;2022-11-11T11:35:35;9.10;99.90
59025;DHT22;44806;48.008;13.666;2022-11-11T11:38:08;9.10;99.90
59025;DHT22;44806;48.008;13.666;2022-11-11T11:40:50;9.10;99.90
59025;DHT22;44806;48.008;13.666;2022-11-11T11:43:29;9.10;99.90
59025;DHT22;44806;48.008;13.666;2022-11-11T11:46:03;9.10;99.90
59025;DHT22;44806;48.008;13.666;2022-11-11T11:48:54;9.10;99.90
59025;DHT22;44806;48.008;13.666;2022-11-11T11:51:35;9.10;99.90
59025;DHT22;44806;48.008;13.666;2022-11-11T11:54:31;9.30;99.90
59025;DHT22;44806;48.008;13.666;2022-11-11T11:57:03;9.40;99.90
59025;DHT22;44806;48.008;13.666;2022-11-11T11:59:40;9.40;99.90
59025;DHT22;44806;48.008;13.666;2022-11-11T12:02:27;9.40;99.90
59025;DHT22;44806;48.008;13.666;2022-11-11T12:05:10;9.30;99.90
59025;DHT22;44806;48.008;13.666;2022-11-11T12:07:59;9.30;99.90
59025;DHT22;44806;48.008;13.666;2022-11-11T12:10:39;9.30;99.90
59025;DHT22;44806;48.008;13.666;2022-11-11T12:13:20;9.40;99.90
59025;DHT22;44806;48.008;13.666;2022-11-11T12:15:55;9.40;99.90
59025;DHT22;44806;48.008;13.666;2022-11-11T12:18:54;9.50;99.90
59025;DHT22;44806;48.008;13.666;2022-11-11T12:21:29;9.50;99.90
59025;DHT22;44806;48.008;13.666;2022-11-11T12:24:05;9.50;99.90
59025;DHT22;44806;48.008;13.666;2022-11-11T12:26:46;9.60;99.90
59025;DHT22;44806;48.008;13.666;2022-11-11T12:29:28;9.70;99.90
59025;DHT22;44806;48.008;13.666;2022-11-11T12:32:14;9.70;99.90
59025;DHT22;44806;48.008;13.666;2022-11-11T12:37:58;9.90;99.90
59025;DHT22;44806;48.008;13.666;2022-11-11T12:40:37;9.90;99.90
59025;DHT22;44806;48.008;13.666;2022-11-11T12:43:17;9.90;99.90
59025;DHT22;44806;48.008;13.666;2022-11-11T12:45:54;10.00;99.90
59025;DHT22;44806;48.008;13.666;2022-11-11T12:48:49;10.00;99.90
59025;DHT22;44806;48.008;13.666;2022-11-11T12:51:29;10.10;99.90
59025;DHT22;44806;48.008;13.666;2022-11-11T12:54:07;10.10;99.90
59025;DHT22;44806;48.008;13.666;2022-11-11T12:56:49;10.20;99.90
59025;DHT22;44806;48.008;13.666;2022-11-11T12:59:27;10.10;99.90
59025;DHT22;44806;48.008;13.666;2022-11-11T13:02:22;10.20;99.90
59025;DHT22;44806;48.008;13.666;2022-11-11T13:04:58;10.20;99.90
59025;DHT22;44806;48.008;13.666;2022-11-11T13:10:26;10.30;99.90
59025;DHT22;44806;48.008;13.666;2022-11-11T13:13:27;10.40;99.90
59025;DHT22;44806;48.008;13.666;2022-11-11T13:15:56;10.40;99.90
59025;DHT22;44806;48.008;13.666;2022-11-11T13:18:28;10.40;99.90
59025;DHT22;44806;48.008;13.666;2022-11-11T13:21:01;10.40;99.90
59025;DHT22;44806;48.008;13.666;2022-11-11T13:23:30;10.40;99.90
59025;DHT22;44806;48.008;13.666;2022-11-11T13:26:02;10.40;99.90
59025;DHT22;44806;48.008;13.666;2022-11-11T13:28:36;10.40;99.90
59025;DHT22;44806;48.008;13.666;2022-11-11T13:31:13;10.40;99.90
59025;DHT22;44806;48.008;13.666;2022-11-11T13:33:45;10.40;99.90
59025;DHT22;44806;48.008;13.666;2022-11-11T13:36:16;10.40;99.90
59025;DHT22;44806;48.008;13.666;2022-11-11T13:38:50;10.40;99.90
59025;DHT22;44806;48.008;13.666;2022-11-11T13:41:24;10.40;99.90
59025;DHT22;44806;48.008;13.666;2022-11-11T13:43:56;10.30;99.90
59025;DHT22;44806;48.008;13.666;2022-11-11T13:46:33;10.30;99.90
59025;DHT22;44806;48.008;13.666;2022-11-11T13:49:03;10.40;99.90
59025;DHT22;44806;48.008;13.666;2022-11-11T13:51:36;10.40;99.90
59025;DHT22;44806;48.008;13.666;2022-11-11T13:54:18;10.30;99.90
59025;DHT22;44806;48.008;13.666;2022-11-11T13:56:50;10.30;99.90
59025;DHT22;44806;48.008;13.666;2022-11-11T13:59:25;10.40;99.90
59025;DHT22;44806;48.008;13.666;2022-11-11T14:05:22;10.40;99.90
59025;DHT22;44806;48.008;13.666;2022-11-11T14:07:53;10.50;99.90
59025;DHT22;44806;48.008;13.666;2022-11-11T14:10:49;10.50;99.90
59025;DHT22;44806;48.008;13.666;2022-11-11T14:13:40;10.50;99.90
59025;DHT22;44806;48.008;13.666;2022-11-11T14:19:31;10.50;99.90
59025;DHT22;44806;48.008;13.666;2022-11-11T14:22:00;10.50;99.90
59025;DHT22;44806;48.008;13.666;2022-11-11T14:24:42;10.40;99.90
59025;DHT22;44806;48.008;13.666;2022-11-11T14:27:15;10.40;99.90
59025;DHT22;44806;48.008;13.666;2022-11-11T14:29:49;10.40;99.90
59025;DHT22;44806;48.008;13.666;2022-11-11T14:32:40;10.40;99.90
59025;DHT22;44806;48.008;13.666;2022-11-11T14:35:18;10.40;99.90
59025;DHT22;44806;48.008;13.666;2022-11-11T14:38:17;10.40;99.90
59025;DHT22;44806;48.008;13.666;2022-11-11T14:40:47;10.30;99.90
59025;DHT22;44806;48.008;13.666;2022-11-11T14:43:34;10.30;99.90
59025;DHT22;44806;48.008;13.666;2022-11-11T14:46:10;10.30;99.90
59025;DHT22;44806;48.008;13.666;2022-11-11T14:49:16;10.30;99.90
59025;DHT22;44806;48.008;13.666;2022-11-11T14:52:16;10.30;99.90
59025;DHT22;44806;48.008;13.666;2022-11-11T14:55:07;10.30;99.90
59025;DHT22;44806;48.008;13.666;2022-11-11T14:57:38;10.20;99.90
59025;DHT22;44806;48.008;13.666;2022-11-11T15:00:14;10.20;99.90
59025;DHT22;44806;48.008;13.666;2022-11-11T15:02:49;10.20;99.90
59025;DHT22;44806;48.008;13.666;2022-11-11T15:05:25;10.10;99.90
59025;DHT22;44806;48.008;13.666;2022-11-11T15:08:03;10.00;99.90
59025;DHT22;44806;48.008;13.666;2022-11-11T15:10:52;10.00;99.90
59025;DHT22;44806;48.008;13.666;2022-11-11T15:16:54;10.00;99.90
59025;DHT22;44806;48.008;13.666;2022-11-11T15:19:37;10.00;99.90
59025;DHT22;44806;48.008;13.666;2022-11-11T15:22:23;9.90;99.90
59025;DHT22;44806;48.008;13.666;2022-11-11T15:24:59;9.80;99.90
59025;DHT22;44806;48.008;13.666;2022-11-11T15:27:34;9.70;99.90
59025;DHT22;44806;48.008;13.666;2022-11-11T15:30:10;9.70;99.90
59025;DHT22;44806;48.008;13.666;2022-11-11T15:32:54;9.70;99.90
59025;DHT22;44806;48.008;13.666;2022-11-11T15:35:34;9.70;99.90
59025;DHT22;44806;48.008;13.666;2022-11-11T15:38:05;9.70;99.90
59025;DHT22;44806;48.008;13.666;2022-11-11T15:40:43;9.60;99.90
59025;DHT22;44806;48.008;13.666;2022-11-11T15:43:14;9.60;99.90
59025;DHT22;44806;48.008;13.666;2022-11-11T15:45:43;9.50;99.90
59025;DHT22;44806;48.008;13.666;2022-11-11T15:48:19;9.50;99.90
59025;DHT22;44806;48.008;13.666;2022-11-11T15:50:47;9.50;99.90
59025;DHT22;44806;48.008;13.666;2022-11-11T15:53:22;9.40;99.90
59025;DHT22;44806;48.008;13.666;2022-11-11T15:55:56;9.40;99.90
59025;DHT22;44806;48.008;13.666;2022-11-11T15:58:27;9.40;99.90
59025;DHT22;44806;48.008;13.666;2022-11-11T16:00:56;9.40;99.90
59025;DHT22;44806;48.008;13.666;2022-11-11T16:03:30;9.40;99.90
59025;DHT22;44806;48.008;13.666;2022-11-11T16:05:59;9.40;99.90
59025;DHT22;44806;48.008;13.666;2022-11-11T16:08:30;9.40;99.90
59025;DHT22;44806;48.008;13.666;2022-11-11T16:10:59;9.20;99.90
59025;DHT22;44806;48.008;13.666;2022-11-11T16:13:30;9.10;99.90
59025;DHT22;44806;48.008;13.666;2022-11-11T16:16:04;9.10;99.90
59025;DHT22;44806;48.008;13.666;2022-11-11T16:18:40;9.00;99.90
59025;DHT22;44806;48.008;13.666;2022-11-11T16:21:12;9.10;99.90
59025;DHT22;44806;48.008;13.666;2022-11-11T16:23:45;9.10;99.90
59025;DHT22;44806;48.008;13.666;2022-11-11T16:26:14;9.10;99.90
59025;DHT22;44806;48.008;13.666;2022-11-11T16:28:50;9.00;99.90